Time;durP1;ratioP1;P1;durP2;ratioP2;P2;SDS_P1;SDS_P2;PMS_P1;PMS_P2;Temp;Humidity;BMP_temperature;BMP_pressure;BME280_temperature;BME280_humidity;BME280_pressure;Samples;Min_cycle;Max_cycle;Signal;HPM_P1;HPM_P2
2024/02/18 00:02:29;;;;;;;2.65;2.03;;;;;;;;;;5015238;28;20057;-61
2024/02/18 00:05:16;;;;;;;3.17;1.88;;;;;;;;;;5012451;28;20104;-44
2024/02/18 00:08:10;;;;;;;3.20;2.20;;;;;;;;;;5013753;28;20447;-47
2024/02/18 00:10:58;;;;;;;3.72;2.17;;;;;;;;;;5012961;28;20568;-48
2024/02/18 00:13:52;;;;;;;7.25;3.20;;;;;;;;;;5015778;28;20049;-47
2024/02/18 00:16:45;;;;;;;5.97;3.38;;;;;;;;;;5010592;28;20064;-45
2024/02/18 00:19:26;;;;;;;4.50;2.60;;;;;;;;;;5010185;28;20131;-46
2024/02/18 00:22:01;;;;;;;8.50;3.67;;;;;;;;;;5015963;28;20052;-54
2024/02/18 00:24:28;;;;;;;;;;;;;;;;;;5013693;28;20532;-62
2024/02/18 00:27:02;;;;;;;6.15;2.20;;;;;;;;;;5015837;28;20353;-63
2024/02/18 00:29:29;;;;;;;9.80;4.32;;;;;;;;;;5011900;28;20058;-63
2024/02/18 00:31:56;;;;;;;5.43;2.55;;;;;;;;;;5016912;28;20073;-63
2024/02/18 00:34:30;;;;;;;6.13;2.65;;;;;;;;;;5011358;28;20844;-63
2024/02/18 00:37:24;;;;;;;6.93;3.55;;;;;;;;;;5013104;28;20045;-63
2024/02/18 00:40:11;;;;;;;5.88;3.35;;;;;;;;;;5013915;28;20057;-61
2024/02/18 00:43:04;;;;;;;6.10;2.70;;;;;;;;;;5010389;28;20054;-61
2024/02/18 00:45:59;;;;;;;4.78;2.88;;;;;;;;;;5012035;28;20115;-60
2024/02/18 00:49:06;;;;;;;4.30;2.63;;;;;;;;;;5013755;28;20533;-56
2024/02/18 00:52:01;;;;;;;6.05;2.75;;;;;;;;;;5012950;28;20049;-61
2024/02/18 00:54:49;;;;;;;6.05;2.45;;;;;;;;;;5012425;28;20057;-61
2024/02/18 00:57:49;;;;;;;4.93;2.88;;;;;;;;;;5014710;28;20045;-60
2024/02/18 01:00:37;;;;;;;4.78;2.63;;;;;;;;;;5013379;28;20390;-62
2024/02/18 01:03:31;;;;;;;5.60;3.13;;;;;;;;;;5016394;28;20432;-60
2024/02/18 01:06:25;;;;;;;6.72;3.70;;;;;;;;;;5014173;28;20061;-60
2024/02/18 01:09:12;;;;;;;5.93;2.50;;;;;;;;;;5015523;28;20050;-47
2024/02/18 01:12:06;;;;;;;4.75;2.50;;;;;;;;;;5017131;28;20496;-46
2024/02/18 01:14:53;;;;;;;6.03;3.20;;;;;;;;;;5018162;28;20072;-51
2024/02/18 01:17:53;;;;;;;5.78;3.30;;;;;;;;;;5012589;28;20049;-60
2024/02/18 01:20:41;;;;;;;6.43;3.33;;;;;;;;;;5015600;28;20049;-57
2024/02/18 01:23:38;;;;;;;5.28;3.20;;;;;;;;;;5017721;28;20088;-53
2024/02/18 01:26:25;;;;;;;5.40;3.00;;;;;;;;;;5015058;28;20060;-54
2024/02/18 01:29:21;;;;;;;7.47;3.42;;;;;;;;;;5014993;28;20111;-59
2024/02/18 01:32:07;;;;;;;5.70;2.95;;;;;;;;;;5014888;28;20066;-58
2024/02/18 01:35:04;;;;;;;5.95;3.15;;;;;;;;;;5015956;28;20050;-55
2024/02/18 01:37:51;;;;;;;6.15;2.85;;;;;;;;;;5016502;28;20065;-63
2024/02/18 01:40:45;;;;;;;5.93;3.10;;;;;;;;;;5014682;28;20528;-63
2024/02/18 01:43:32;;;;;;;4.80;2.92;;;;;;;;;;5019744;28;20835;-62
2024/02/18 01:46:26;;;;;;;5.68;2.80;;;;;;;;;;5011933;28;20057;-65
2024/02/18 01:49:13;;;;;;;4.82;2.67;;;;;;;;;;5010755;28;20049;-61
2024/02/18 01:52:08;;;;;;;8.52;2.70;;;;;;;;;;5011717;28;20057;-62
2024/02/18 01:54:55;;;;;;;2.63;1.75;;;;;;;;;;5015841;28;20538;-62
2024/02/18 01:57:49;;;;;;;5.53;2.38;;;;;;;;;;5009635;28;20202;-62
2024/02/18 02:00:39;;;;;;;4.25;2.42;;;;;;;;;;5013104;28;20050;-60
2024/02/18 02:03:30;;;;;;;4.32;2.33;;;;;;;;;;5008124;28;20140;-60
2024/02/18 02:06:18;;;;;;;4.22;2.28;;;;;;;;;;5010919;28;20151;-61
2024/02/18 02:09:12;;;;;;;3.95;2.20;;;;;;;;;;5013001;28;20049;-61
2024/02/18 02:12:00;;;;;;;4.50;2.50;;;;;;;;;;5007857;28;20192;-61
2024/02/18 02:14:54;;;;;;;7.22;2.25;;;;;;;;;;5011944;28;20497;-57
2024/02/18 02:17:47;;;;;;;2.97;2.20;;;;;;;;;;5012362;28;20061;-61
2024/02/18 02:20:42;;;;;;;2.90;2.00;;;;;;;;;;5013391;28;20042;-61
2024/02/18 02:23:31;;;;;;;2.33;1.83;;;;;;;;;;5011640;28;20064;-60
2024/02/18 02:26:25;;;;;;;4.45;1.92;;;;;;;;;;5010063;28;20673;-60
2024/02/18 02:29:15;;;;;;;4.43;2.10;;;;;;;;;;5009836;28;20170;-60
2024/02/18 02:32:07;;;;;;;2.83;1.73;;;;;;;;;;5011542;28;20089;-58
2024/02/18 02:35:02;;;;;;;4.35;2.08;;;;;;;;;;5010760;28;20041;-60
2024/02/18 02:37:48;;;;;;;2.70;1.60;;;;;;;;;;5011962;28;20056;-58
2024/02/18 02:40:42;;;;;;;2.90;1.83;;;;;;;;;;5010817;28;20107;-57
2024/02/18 02:43:29;;;;;;;1.88;1.65;;;;;;;;;;5010329;28;20092;-59
2024/02/18 02:46:23;;;;;;;2.15;1.70;;;;;;;;;;5014221;28;20053;-53
2024/02/18 02:49:10;;;;;;;2.33;1.52;;;;;;;;;;5014523;28;20053;-52
2024/02/18 02:52:04;;;;;;;3.58;2.00;;;;;;;;;;5012328;28;20052;-52
2024/02/18 02:54:58;;;;;;;2.88;1.92;;;;;;;;;;5010264;28;20064;-50
2024/02/18 02:57:53;;;;;;;4.60;1.73;;;;;;;;;;5013131;28;20056;-48
2024/02/18 03:00:39;;;;;;;3.78;2.00;;;;;;;;;;5007549;28;20509;-44
2024/02/18 03:03:33;;;;;;;2.72;1.73;;;;;;;;;;5010324;28;20057;-51
2024/02/18 03:06:20;;;;;;;4.90;1.75;;;;;;;;;;5012812;28;20080;-48
2024/02/18 03:09:14;;;;;;;2.90;2.00;;;;;;;;;;5009707;28;20053;-46
2024/02/18 03:12:08;;;;;;;2.85;1.90;;;;;;;;;;5012606;28;20050;-63
2024/02/18 03:14:55;;;;;;;3.42;2.05;;;;;;;;;;5012804;28;20408;-61
2024/02/18 03:17:56;;;;;;;3.20;1.83;;;;;;;;;;5012196;28;20065;-61
2024/02/18 03:20:43;;;;;;;3.97;1.70;;;;;;;;;;5010223;28;20065;-62
2024/02/18 03:23:36;;;;;;;2.85;1.90;;;;;;;;;;5010398;28;20563;-61
2024/02/18 03:26:31;;;;;;;5.05;1.92;;;;;;;;;;5016155;28;20133;-61
2024/02/18 03:29:18;;;;;;;4.30;1.88;;;;;;;;;;5017326;28;20115;-54
2024/02/18 03:32:12;;;;;;;4.60;1.80;;;;;;;;;;5014885;28;20519;-54
2024/02/18 03:35:06;;;;;;;2.80;1.70;;;;;;;;;;5015622;28;20057;-57
2024/02/18 03:37:59;;;;;;;3.15;1.65;;;;;;;;;;5015368;28;20099;-58
2024/02/18 03:40:54;;;;;;;2.13;1.50;;;;;;;;;;4998714;28;20509;-63
2024/02/18 03:43:41;;;;;;;3.85;1.65;;;;;;;;;;5014261;28;20062;-59
2024/02/18 03:46:35;;;;;;;3.05;1.85;;;;;;;;;;5013332;28;20053;-60
2024/02/18 03:49:22;;;;;;;2.55;1.50;;;;;;;;;;5011088;28;20274;-59
2024/02/18 03:52:16;;;;;;;4.78;1.80;;;;;;;;;;5014008;28;21026;-58
2024/02/18 03:55:03;;;;;;;2.40;1.55;;;;;;;;;;5014404;28;20062;-58
2024/02/18 03:57:57;;;;;;;2.45;1.40;;;;;;;;;;5013237;28;20057;-60
2024/02/18 04:00:51;;;;;;;3.28;1.80;;;;;;;;;;5012373;28;20391;-61
2024/02/18 04:03:45;;;;;;;3.40;1.50;;;;;;;;;;5013726;28;20057;-61
2024/02/18 04:06:39;;;;;;;6.15;1.50;;;;;;;;;;5012620;28;21138;-61
2024/02/18 04:09:33;;;;;;;3.80;1.73;;;;;;;;;;5011815;28;20483;-62
2024/02/18 04:12:27;;;;;;;4.03;1.70;;;;;;;;;;5019469;28;20065;-61
2024/02/18 04:15:14;;;;;;;3.15;1.63;;;;;;;;;;5013531;28;21492;-62
2024/02/18 04:18:17;;;;;;;3.55;1.50;;;;;;;;;;5015786;28;20053;-48
2024/02/18 04:21:05;;;;;;;2.15;1.45;;;;;;;;;;5011831;28;20089;-48
2024/02/18 04:23:59;;;;;;;3.20;1.65;;;;;;;;;;5015910;28;20092;-48
2024/02/18 04:26:46;;;;;;;2.38;1.35;;;;;;;;;;5010903;28;20054;-57
2024/02/18 04:29:40;;;;;;;2.72;1.45;;;;;;;;;;5012205;28;20050;-61
2024/02/18 04:32:27;;;;;;;2.50;1.60;;;;;;;;;;5013919;28;20113;-61
2024/02/18 04:35:21;;;;;;;1.50;1.20;;;;;;;;;;5008089;28;20050;-61
2024/02/18 04:38:08;;;;;;;3.92;1.83;;;;;;;;;;5017479;28;20046;-61
2024/02/18 04:41:01;;;;;;;3.95;1.52;;;;;;;;;;5016434;28;20049;-60
2024/02/18 04:43:49;;;;;;;3.13;1.60;;;;;;;;;;5011256;28;20041;-61
2024/02/18 04:46:43;;;;;;;2.88;1.48;;;;;;;;;;5012273;28;20680;-48
2024/02/18 04:49:31;;;;;;;1.80;1.55;;;;;;;;;;5008277;28;20307;-47
2024/02/18 04:52:24;;;;;;;2.40;1.25;;;;;;;;;;5012473;28;20147;-47
2024/02/18 04:55:11;;;;;;;3.97;1.42;;;;;;;;;;5013739;28;20053;-62
2024/02/18 04:58:04;;;;;;;1.85;1.27;;;;;;;;;;5011432;28;20077;-59
2024/02/18 05:00:52;;;;;;;3.38;1.35;;;;;;;;;;5011946;28;20528;-58
2024/02/18 05:03:46;;;;;;;3.10;1.30;;;;;;;;;;5011703;28;20528;-56
2024/02/18 05:06:33;;;;;;;4.50;1.95;;;;;;;;;;5010588;28;20050;-56
2024/02/18 05:09:27;;;;;;;4.15;1.58;;;;;;;;;;5014312;28;20528;-56
2024/02/18 05:12:14;;;;;;;4.85;1.63;;;;;;;;;;5013696;28;20065;-55
2024/02/18 05:15:09;;;;;;;2.55;1.60;;;;;;;;;;5011332;28;20136;-61
2024/02/18 05:18:02;;;;;;;2.97;1.77;;;;;;;;;;5010086;28;20060;-60
2024/02/18 05:20:57;;;;;;;3.42;1.30;;;;;;;;;;5007690;28;20145;-61
2024/02/18 05:23:44;;;;;;;1.65;1.40;;;;;;;;;;5011190;28;20482;-61
2024/02/18 05:26:37;;;;;;;4.53;1.60;;;;;;;;;;5011463;28;21055;-46
2024/02/18 05:29:31;;;;;;;2.15;1.40;;;;;;;;;;5014031;28;20058;-45
2024/02/18 05:32:20;;;;;;;3.00;1.30;;;;;;;;;;5010643;28;20994;-46
2024/02/18 05:35:13;;;;;;;3.50;1.48;;;;;;;;;;5017726;28;20050;-48
2024/02/18 05:38:00;;;;;;;2.95;1.55;;;;;;;;;;5014076;28;20534;-48
2024/02/18 05:40:55;;;;;;;2.17;1.52;;;;;;;;;;5014871;28;20072;-47
2024/02/18 05:43:42;;;;;;;3.92;1.58;;;;;;;;;;5014517;28;20050;-61
2024/02/18 05:46:36;;;;;;;3.60;1.65;;;;;;;;;;5012859;28;20073;-61
2024/02/18 05:49:23;;;;;;;1.45;1.20;;;;;;;;;;5012331;28;20049;-62
2024/02/18 05:52:17;;;;;;;4.80;1.52;;;;;;;;;;5011330;28;20436;-52
2024/02/18 05:55:04;;;;;;;12.13;2.13;;;;;;;;;;5013958;28;20049;-54
2024/02/18 05:57:58;;;;;;;5.93;1.55;;;;;;;;;;5014544;28;20060;-54
2024/02/18 06:00:51;;;;;;;1.35;1.15;;;;;;;;;;5007959;28;20317;-55
2024/02/18 06:03:46;;;;;;;2.47;1.50;;;;;;;;;;5013745;28;20068;-55
2024/02/18 06:06:40;;;;;;;1.83;1.30;;;;;;;;;;5014147;28;20050;-58
2024/02/18 06:09:34;;;;;;;2.30;1.23;;;;;;;;;;5013912;28;20062;-48
2024/02/18 06:12:28;;;;;;;3.50;1.50;;;;;;;;;;5014437;28;20072;-48
2024/02/18 06:15:15;;;;;;;2.65;1.50;;;;;;;;;;5009983;28;20049;-47
2024/02/18 06:18:15;;;;;;;4.40;1.50;;;;;;;;;;5015122;28;20060;-46
2024/02/18 06:21:04;;;;;;;2.42;1.35;;;;;;;;;;5015557;28;20049;-58
2024/02/18 06:23:57;;;;;;;1.58;1.10;;;;;;;;;;5017445;28;20048;-61
2024/02/18 06:26:44;;;;;;;1.98;1.23;;;;;;;;;;5004735;28;20057;-62
2024/02/18 06:29:38;;;;;;;2.92;1.20;;;;;;;;;;5013851;28;20526;-62
2024/02/18 06:32:25;;;;;;;2.28;1.15;;;;;;;;;;5015720;28;20580;-62
2024/02/18 06:35:19;;;;;;;2.85;1.00;;;;;;;;;;5014881;28;20099;-62
2024/02/18 06:38:06;;;;;;;3.08;1.20;;;;;;;;;;4999096;28;20072;-50
2024/02/18 06:41:00;;;;;;;2.20;1.17;;;;;;;;;;5012100;28;20099;-47
2024/02/18 06:43:47;;;;;;;4.57;1.38;;;;;;;;;;5009111;28;20053;-57
2024/02/18 06:46:42;;;;;;;4.28;1.60;;;;;;;;;;5006564;28;20049;-57
2024/02/18 06:49:30;;;;;;;1.80;1.08;;;;;;;;;;5006656;28;20106;-56
2024/02/18 06:52:23;;;;;;;3.63;1.20;;;;;;;;;;5007946;28;20050;-53
2024/02/18 06:55:11;;;;;;;1.33;1.10;;;;;;;;;;5014008;28;20793;-57
2024/02/18 06:58:05;;;;;;;2.10;1.05;;;;;;;;;;4998833;28;20061;-63
2024/02/18 07:00:52;;;;;;;2.80;1.15;;;;;;;;;;5014229;28;20061;-64
2024/02/18 07:03:46;;;;;;;1.63;1.10;;;;;;;;;;5015009;28;20119;-63
2024/02/18 07:06:34;;;;;;;2.47;1.00;;;;;;;;;;5012719;28;20077;-64
2024/02/18 07:09:28;;;;;;;1.23;1.05;;;;;;;;;;5016743;28;20136;-63
2024/02/18 07:12:15;;;;;;;3.95;1.23;;;;;;;;;;5015600;28;20077;-64
2024/02/18 07:15:12;;;;;;;3.00;1.13;;;;;;;;;;5013203;28;20432;-56
2024/02/18 07:18:02;;;;;;;2.25;0.98;;;;;;;;;;5006276;28;20099;-57
2024/02/18 07:20:57;;;;;;;1.67;0.82;;;;;;;;;;5015746;28;20057;-64
2024/02/18 07:23:45;;;;;;;2.08;0.82;;;;;;;;;;5011453;28;20178;-64
2024/02/18 07:26:39;;;;;;;2.30;0.95;;;;;;;;;;5014122;28;20082;-64
2024/02/18 07:29:33;;;;;;;4.05;1.05;;;;;;;;;;5011191;28;20111;-63
2024/02/18 07:32:20;;;;;;;1.15;0.90;;;;;;;;;;5012536;28;20104;-64
2024/02/18 07:35:20;;;;;;;2.63;1.08;;;;;;;;;;5001016;28;20077;-64
2024/02/18 07:38:08;;;;;;;2.40;0.90;;;;;;;;;;5014336;28;20065;-57
2024/02/18 07:41:02;;;;;;;2.30;0.82;;;;;;;;;;5008542;28;20054;-60
2024/02/18 07:44:01;;;;;;;2.85;1.00;;;;;;;;;;5013978;28;20049;-61
2024/02/18 07:46:57;;;;;;;2.22;0.85;;;;;;;;;;5015200;28;20045;-58
2024/02/18 07:49:43;;;;;;;1.70;1.27;;;;;;;;;;5012484;28;20084;-59
2024/02/18 07:52:37;;;;;;;2.60;1.60;;;;;;;;;;5013508;28;20057;-62
2024/02/18 07:55:24;;;;;;;5.38;1.20;;;;;;;;;;5009086;28;23853;-59
2024/02/18 07:58:18;;;;;;;1.23;0.88;;;;;;;;;;5009479;28;20041;-57
2024/02/18 08:01:05;;;;;;;1.48;1.00;;;;;;;;;;5013830;28;20477;-58
2024/02/18 08:03:59;;;;;;;2.05;1.02;;;;;;;;;;5007682;28;20132;-58
2024/02/18 08:06:46;;;;;;;1.67;1.10;;;;;;;;;;5018865;28;20057;-58
2024/02/18 08:09:40;;;;;;;1.83;1.58;;;;;;;;;;5019938;28;20053;-55
2024/02/18 08:12:27;;;;;;;1.83;1.48;;;;;;;;;;5015433;28;20152;-50
2024/02/18 08:15:21;;;;;;;1.65;1.10;;;;;;;;;;5017469;28;20103;-53
2024/02/18 08:18:15;;;;;;;1.42;1.08;;;;;;;;;;5013656;28;20542;-51
2024/02/18 08:21:09;;;;;;;3.63;1.75;;;;;;;;;;5017838;28;20070;-55
2024/02/18 08:23:56;;;;;;;1.23;0.60;;;;;;;;;;5017175;28;20060;-53
2024/02/18 08:26:50;;;;;;;3.80;0.90;;;;;;;;;;5015760;28;20148;-50
2024/02/18 08:29:40;;;;;;;0.93;0.77;;;;;;;;;;5016243;28;20052;-58
2024/02/18 08:32:34;;;;;;;5.13;2.97;;;;;;;;;;5013766;28;20104;-61
2024/02/18 08:35:22;;;;;;;7.07;3.13;;;;;;;;;;5013354;28;20140;-61
2024/02/18 08:38:15;;;;;;;2.28;1.38;;;;;;;;;;5010637;28;20054;-61
2024/02/18 08:41:03;;;;;;;1.00;1.00;;;;;;;;;;5013041;28;20108;-60
2024/02/18 08:43:56;;;;;;;1.15;1.05;;;;;;;;;;5017588;28;20182;-60
2024/02/18 08:46:43;;;;;;;0.77;0.65;;;;;;;;;;5013023;28;20081;-68
2024/02/18 08:49:37;;;;;;;1.58;0.90;;;;;;;;;;5017287;28;20100;-62
2024/02/18 08:52:24;;;;;;;1.38;1.27;;;;;;;;;;5011613;28;20061;-54
2024/02/18 08:55:18;;;;;;;3.20;0.80;;;;;;;;;;5011474;28;20492;-53
2024/02/18 08:58:05;;;;;;;1.17;0.80;;;;;;;;;;5006404;28;20061;-53
2024/02/18 09:00:39;;;;;;;1.92;0.90;;;;;;;;;;5012464;28;20157;-54
2024/02/18 09:03:13;;;;;;;2.05;0.95;;;;;;;;;;4996911;28;20514;-51
2024/02/18 09:05:41;;;;;;;1.48;0.98;;;;;;;;;;5010994;28;20053;-61
2024/02/18 09:08:35;;;;;;;1.48;1.02;;;;;;;;;;5007592;28;20054;-64
2024/02/18 09:11:24;;;;;;;5.60;4.28;;;;;;;;;;5014004;28;20563;-63
2024/02/18 09:14:18;;;;;;;1.48;0.98;;;;;;;;;;5012415;28;20061;-63
2024/02/18 09:17:11;;;;;;;2.65;1.20;;;;;;;;;;5013829;28;20057;-62
2024/02/18 09:20:06;;;;;;;1.17;0.80;;;;;;;;;;5014462;28;20165;-63
2024/02/18 09:22:53;;;;;;;1.93;0.80;;;;;;;;;;5012946;28;20050;-63
2024/02/18 09:25:48;;;;;;;2.30;1.13;;;;;;;;;;5007039;28;20212;-62
2024/02/18 09:28:35;;;;;;;1.27;1.13;;;;;;;;;;5011570;28;22478;-62
2024/02/18 09:31:34;;;;;;;1.15;1.00;;;;;;;;;;5010457;28;20050;-61
2024/02/18 09:34:22;;;;;;;1.85;1.08;;;;;;;;;;4988800;28;20042;-61
2024/02/18 09:37:16;;;;;;;4.85;0.80;;;;;;;;;;4989875;28;20054;-61
2024/02/18 09:40:04;;;;;;;4.68;0.68;;;;;;;;;;4994518;28;20083;-63
2024/02/18 09:42:59;;;;;;;1.23;0.80;;;;;;;;;;4995901;28;20053;-67
2024/02/18 09:45:46;;;;;;;2.40;0.93;;;;;;;;;;4993415;28;20094;-61
2024/02/18 09:48:41;;;;;;;1.48;0.90;;;;;;;;;;4996679;28;20052;-62
2024/02/18 09:51:29;;;;;;;2.90;1.00;;;;;;;;;;4991987;28;20577;-61
2024/02/18 09:54:23;;;;;;;1.63;0.70;;;;;;;;;;4999968;28;20148;-62
2024/02/18 09:57:10;;;;;;;0.68;0.68;;;;;;;;;;4991619;28;20062;-62
2024/02/18 10:00:04;;;;;;;1.70;0.70;;;;;;;;;;4997316;28;20165;-62
2024/02/18 10:02:52;;;;;;;1.83;0.70;;;;;;;;;;4997941;28;20517;-64
2024/02/18 10:05:45;;;;;;;1.92;0.80;;;;;;;;;;4994599;28;20053;-64
2024/02/18 10:08:43;;;;;;;2.92;0.88;;;;;;;;;;4997086;28;20397;-65
2024/02/18 10:11:32;;;;;;;1.40;0.93;;;;;;;;;;4997090;28;20112;-63
2024/02/18 10:14:28;;;;;;;1.52;0.90;;;;;;;;;;4996122;28;20050;-64
2024/02/18 10:17:21;;;;;;;0.60;0.60;;;;;;;;;;4993390;28;20070;-65
2024/02/18 10:20:15;;;;;;;1.42;1.00;;;;;;;;;;4993667;28;20372;-67
2024/02/18 10:23:02;;;;;;;1.05;0.70;;;;;;;;;;4993341;28;20116;-61
2024/02/18 10:25:59;;;;;;;2.20;1.17;;;;;;;;;;4984609;28;20500;-61
2024/02/18 10:28:27;;;;;;;51.88;29.00;;;;;;;;;;4970238;28;20307;-62
2024/02/18 10:31:21;;;;;;;1.98;1.67;;;;;;;;;;4988863;28;20054;-61
2024/02/18 10:34:08;;;;;;;2.25;1.90;;;;;;;;;;4996697;28;20054;-61
2024/02/18 10:37:08;;;;;;;4.63;2.08;;;;;;;;;;4993340;28;20466;-62
2024/02/18 10:40:05;;;;;;;3.20;1.65;;;;;;;;;;4997101;28;20053;-56
2024/02/18 10:42:59;;;;;;;3.95;1.02;;;;;;;;;;4998480;28;20513;-50
2024/02/18 10:45:52;;;;;;;6.63;2.63;;;;;;;;;;4996401;28;20054;-50
2024/02/18 10:48:48;;;;;;;2.13;1.10;;;;;;;;;;5000145;28;20050;-47
2024/02/18 10:51:38;;;;;;;2.55;0.98;;;;;;;;;;4996588;28;20115;-53
2024/02/18 10:54:46;;;;;;;2.40;1.35;;;;;;;;;;4999170;28;20081;-47
2024/02/18 10:58:02;;;;;;;2.80;1.48;;;;;;;;;;4995857;28;20207;-62
2024/02/18 11:00:54;;;;;;;2.80;1.08;;;;;;;;;;4999549;28;20053;-57
2024/02/18 11:03:51;;;;;;;1.50;1.20;;;;;;;;;;4997057;28;20093;-57
2024/02/18 11:06:41;;;;;;;2.22;1.10;;;;;;;;;;4998023;28;20079;-58
2024/02/18 11:09:36;;;;;;;5.53;1.20;;;;;;;;;;4997031;28;20072;-55
2024/02/18 11:12:23;;;;;;;3.78;1.10;;;;;;;;;;4998644;28;20129;-57
2024/02/18 11:15:17;;;;;;;2.25;0.90;;;;;;;;;;4996888;28;20061;-62
2024/02/18 11:18:11;;;;;;;6.32;0.90;;;;;;;;;;4999042;28;20501;-64
2024/02/18 11:21:13;;;;;;;3.00;1.02;;;;;;;;;;4998095;28;20593;-64
2024/02/18 11:24:00;;;;;;;3.17;1.33;;;;;;;;;;4994275;28;20228;-64
2024/02/18 11:26:54;;;;;;;6.32;0.98;;;;;;;;;;4998825;28;20045;-64
2024/02/18 11:29:45;;;;;;;11.50;3.13;;;;;;;;;;4998065;28;20061;-64
2024/02/18 11:32:39;;;;;;;2.45;1.10;;;;;;;;;;4997281;28;20112;-67
2024/02/18 11:35:33;;;;;;;6.80;1.70;;;;;;;;;;4997086;28;20053;-67
2024/02/18 11:38:27;;;;;;;4.78;1.30;;;;;;;;;;5001777;28;20046;-68
2024/02/18 11:41:33;;;;;;;4.38;1.33;;;;;;;;;;4994792;28;20373;-67
2024/02/18 11:44:20;;;;;;;3.22;1.20;;;;;;;;;;5000348;28;20072;-67
2024/02/18 11:47:14;;;;;;;4.57;1.25;;;;;;;;;;4997591;28;20052;-67
2024/02/18 11:50:08;;;;;;;6.70;1.92;;;;;;;;;;4997658;28;20046;-67
2024/02/18 11:53:03;;;;;;;3.92;1.48;;;;;;;;;;4999650;28;20480;-64
2024/02/18 11:55:50;;;;;;;5.75;1.40;;;;;;;;;;4992046;28;20121;-60
2024/02/18 11:58:46;;;;;;;6.00;1.73;;;;;;;;;;5000298;28;20058;-62
2024/02/18 12:01:40;;;;;;;5.47;1.17;;;;;;;;;;4999194;28;20061;-59
2024/02/18 12:04:27;;;;;;;2.03;1.23;;;;;;;;;;4996107;28;20144;-60
2024/02/18 12:07:21;;;;;;;2.60;1.15;;;;;;;;;;4998236;28;20057;-60
2024/02/18 12:10:17;;;;;;;6.03;1.55;;;;;;;;;;4999120;28;20526;-62
2024/02/18 12:13:10;;;;;;;4.43;1.40;;;;;;;;;;5000599;28;20065;-67
2024/02/18 12:15:58;;;;;;;4.65;2.03;;;;;;;;;;4999972;28;20136;-67
2024/02/18 12:18:58;;;;;;;2.42;1.23;;;;;;;;;;4997172;28;20064;-67
2024/02/18 12:21:53;;;;;;;4.78;2.05;;;;;;;;;;4996655;28;20140;-67
2024/02/18 12:24:40;;;;;;;5.32;1.70;;;;;;;;;;4993725;28;20410;-66
2024/02/18 12:27:36;;;;;;;21.42;8.50;;;;;;;;;;4998624;28;20124;-47
2024/02/18 12:30:24;;;;;;;6.20;2.15;;;;;;;;;;4998370;28;20100;-65
2024/02/18 12:33:18;;;;;;;3.65;1.50;;;;;;;;;;4997905;28;20050;-49
2024/02/18 12:36:06;;;;;;;3.90;1.42;;;;;;;;;;4998840;28;20152;-48
2024/02/18 12:39:00;;;;;;;6.40;3.50;;;;;;;;;;4998038;28;20532;-53
2024/02/18 12:41:47;;;;;;;6.80;3.33;;;;;;;;;;4997822;28;20054;-53
2024/02/18 12:44:41;;;;;;;6.47;1.70;;;;;;;;;;4989723;28;20077;-51
2024/02/18 12:47:51;;;;;;;12.10;4.55;;;;;;;;;;4999807;28;20050;-62
2024/02/18 12:50:56;;;;;;;3.42;2.50;;;;;;;;;;4991716;28;20054;-67
2024/02/18 12:53:43;;;;;;;7.97;2.80;;;;;;;;;;4997307;28;20047;-67
2024/02/18 12:56:39;;;;;;;3.35;1.70;;;;;;;;;;4995608;28;20120;-68
2024/02/18 12:59:27;;;;;;;3.63;1.30;;;;;;;;;;4996970;28;20045;-67
2024/02/18 13:02:21;;;;;;;4.13;1.50;;;;;;;;;;4998139;28;20049;-67
2024/02/18 13:05:11;;;;;;;2.08;1.00;;;;;;;;;;4994957;28;20053;-47
2024/02/18 13:08:05;;;;;;;4.80;1.58;;;;;;;;;;4996345;28;20496;-59
2024/02/18 13:10:52;;;;;;;2.50;1.33;;;;;;;;;;4998075;28;20517;-60
2024/02/18 13:13:46;;;;;;;3.47;1.70;;;;;;;;;;4996480;28;20136;-56
2024/02/18 13:16:33;;;;;;;2.75;1.08;;;;;;;;;;4991877;28;20050;-60
2024/02/18 13:19:33;;;;;;;2.40;1.25;;;;;;;;;;4992909;28;20104;-59
2024/02/18 13:22:21;;;;;;;1.30;0.88;;;;;;;;;;4999140;28;20064;-55
2024/02/18 13:25:15;;;;;;;1.92;0.85;;;;;;;;;;4996225;28;20108;-59
2024/02/18 13:28:03;;;;;;;6.10;1.40;;;;;;;;;;4997369;28;20116;-57
2024/02/18 13:30:56;;;;;;;1.67;1.27;;;;;;;;;;4999765;28;20049;-57
2024/02/18 13:33:44;;;;;;;4.18;1.15;;;;;;;;;;4995245;28;20719;-57
2024/02/18 13:36:41;;;;;;;3.38;1.05;;;;;;;;;;4997186;28;20073;-57
2024/02/18 13:39:28;;;;;;;2.50;1.10;;;;;;;;;;4999379;28;20104;-56
2024/02/18 13:42:22;;;;;;;2.42;1.27;;;;;;;;;;4997327;28;20060;-56
2024/02/18 13:45:09;;;;;;;1.23;0.82;;;;;;;;;;4998514;28;20159;-67
2024/02/18 13:48:03;;;;;;;1.48;1.13;;;;;;;;;;4999674;28;20046;-67
2024/02/18 13:50:50;;;;;;;3.42;0.95;;;;;;;;;;4998751;28;20422;-66
2024/02/18 13:53:44;;;;;;;4.43;1.30;;;;;;;;;;4998082;28;20133;-67
2024/02/18 13:56:31;;;;;;;1.95;0.82;;;;;;;;;;4995248;28;20076;-67
2024/02/18 13:59:25;;;;;;;1.73;0.85;;;;;;;;;;4988501;28;20046;-48
2024/02/18 14:02:12;;;;;;;3.33;1.00;;;;;;;;;;4997552;28;20101;-61
2024/02/18 14:05:06;;;;;;;3.15;1.02;;;;;;;;;;4994922;28;20064;-64
2024/02/18 14:07:53;;;;;;;5.78;1.30;;;;;;;;;;4997411;28;20520;-65
2024/02/18 14:10:47;;;;;;;3.15;1.35;;;;;;;;;;4997629;28;20053;-64
2024/02/18 14:13:34;;;;;;;8.25;5.32;;;;;;;;;;4996983;28;20673;-66
2024/02/18 14:16:34;;;;;;;2.95;1.70;;;;;;;;;;4997604;28;20120;-65
2024/02/18 14:19:22;;;;;;;5.50;1.55;;;;;;;;;;4998258;28;20116;-66
2024/02/18 14:22:16;;;;;;;3.95;1.40;;;;;;;;;;4996932;28;20046;-60
2024/02/18 14:25:04;;;;;;;2.78;1.38;;;;;;;;;;4995034;28;20046;-55
2024/02/18 14:27:58;;;;;;;5.05;1.50;;;;;;;;;;4997102;28;20053;-60
2024/02/18 14:30:54;;;;;;;5.95;1.95;;;;;;;;;;4996277;28;20050;-59
2024/02/18 14:33:46;;;;;;;3.17;1.50;;;;;;;;;;4987276;28;20058;-57
2024/02/18 14:36:42;;;;;;;3.70;1.77;;;;;;;;;;4989486;28;20053;-59
2024/02/18 14:39:27;;;;;;;2.10;1.58;;;;;;;;;;4997231;28;20105;-66
2024/02/18 14:42:21;;;;;;;5.22;1.65;;;;;;;;;;4997181;28;20050;-65
2024/02/18 14:45:11;;;;;;;4.97;1.42;;;;;;;;;;4991587;28;20069;-65
2024/02/18 14:48:05;;;;;;;4.78;1.63;;;;;;;;;;4992731;28;20513;-64
2024/02/18 14:50:52;;;;;;;3.85;1.70;;;;;;;;;;4990095;28;20042;-65
2024/02/18 14:53:49;;;;;;;3.55;1.42;;;;;;;;;;4990372;28;20049;-65
2024/02/18 14:56:33;;;;;;;2.28;1.30;;;;;;;;;;4987801;28;20066;-65
2024/02/18 14:59:27;;;;;;;2.65;1.25;;;;;;;;;;4994436;28;20065;-65
2024/02/18 15:02:14;;;;;;;2.40;1.50;;;;;;;;;;4988366;28;20057;-67
2024/02/18 15:05:10;;;;;;;2.03;1.55;;;;;;;;;;4990123;28;20161;-67
2024/02/18 15:08:04;;;;;;;2.20;1.65;;;;;;;;;;4986370;28;20540;-65
2024/02/18 15:10:51;;;;;;;2.75;1.80;;;;;;;;;;4993308;28;20550;-66
2024/02/18 15:13:45;;;;;;;4.38;1.88;;;;;;;;;;4991098;28;20057;-46
2024/02/18 15:16:32;;;;;;;2.70;1.52;;;;;;;;;;4991231;28;20081;-62
2024/02/18 15:19:40;;;;;;;5.57;1.70;;;;;;;;;;4985648;28;20073;-63
2024/02/18 15:22:27;;;;;;;3.72;1.88;;;;;;;;;;4993406;28;20100;-62
2024/02/18 15:25:21;;;;;;;4.53;1.95;;;;;;;;;;4991883;28;20104;-63
2024/02/18 15:28:08;;;;;;;4.25;1.77;;;;;;;;;;4989695;28;20058;-62
2024/02/18 15:31:08;;;;;;;2.75;1.70;;;;;;;;;;4990184;28;20145;-60
2024/02/18 15:33:52;;;;;;;5.03;1.80;;;;;;;;;;4990679;28;20057;-63
2024/02/18 15:36:46;;;;;;;2.42;1.42;;;;;;;;;;4990061;28;20227;-58
2024/02/18 15:39:40;;;;;;;2.50;1.75;;;;;;;;;;4989913;28;20153;-60
2024/02/18 15:42:34;;;;;;;4.25;1.60;;;;;;;;;;4985712;28;20608;-59
2024/02/18 15:45:21;;;;;;;1.90;1.50;;;;;;;;;;4991692;28;20472;-61
2024/02/18 15:48:16;;;;;;;2.50;1.23;;;;;;;;;;4990471;28;20492;-61
2024/02/18 15:51:02;;;;;;;6.70;1.65;;;;;;;;;;4973352;28;20236;-67
2024/02/18 15:53:56;;;;;;;6.15;4.40;;;;;;;;;;4992669;28;20746;-47
2024/02/18 15:56:43;;;;;;;5.03;3.67;;;;;;;;;;4989692;28;20061;-51
2024/02/18 15:59:17;;;;;;;1.98;1.52;;;;;;;;;;4992474;28;20552;-51
2024/02/18 16:02:11;;;;;;;1.42;1.30;;;;;;;;;;4991747;28;20747;-49
2024/02/18 16:05:05;;;;;;;1.55;1.15;;;;;;;;;;4988558;28;20584;-53
2024/02/18 16:07:59;;;;;;;1.60;1.38;;;;;;;;;;4990540;28;20706;-51
2024/02/18 16:10:46;;;;;;;3.47;1.38;;;;;;;;;;4990945;28;20058;-60
2024/02/18 16:13:45;;;;;;;1.92;1.30;;;;;;;;;;4989235;28;20047;-56
2024/02/18 16:16:31;;;;;;;4.10;1.20;;;;;;;;;;4989526;28;20057;-55
2024/02/18 16:19:38;;;;;;;1.92;1.50;;;;;;;;;;4991300;28;20139;-55
2024/02/18 16:22:33;;;;;;;1.98;1.00;;;;;;;;;;4989092;28;20053;-56
2024/02/18 16:25:27;;;;;;;1.33;1.08;;;;;;;;;;4992759;28;20053;-55
2024/02/18 16:28:14;;;;;;;5.57;3.65;;;;;;;;;;4994807;28;20058;-65
2024/02/18 16:31:08;;;;;;;1.85;1.27;;;;;;;;;;4991778;28;20080;-63
2024/02/18 16:33:56;;;;;;;1.45;1.20;;;;;;;;;;4991734;28;20182;-63
2024/02/18 16:36:49;;;;;;;1.27;1.15;;;;;;;;;;4993144;28;20064;-64
2024/02/18 16:39:36;;;;;;;3.67;1.23;;;;;;;;;;4991237;28;20058;-63
2024/02/18 16:42:31;;;;;;;3.33;1.48;;;;;;;;;;4991508;28;20601;-63
2024/02/18 16:45:17;;;;;;;2.55;1.23;;;;;;;;;;4992561;28;20436;-59
2024/02/18 16:48:11;;;;;;;1.20;1.02;;;;;;;;;;4987779;28;20065;-61
2024/02/18 16:50:58;;;;;;;3.63;1.90;;;;;;;;;;4998048;28;20057;-59
2024/02/18 16:53:52;;;;;;;1.90;1.25;;;;;;;;;;4993959;28;20058;-60
2024/02/18 16:56:39;;;;;;;1.92;1.38;;;;;;;;;;4994419;28;20045;-59
2024/02/18 16:59:37;;;;;;;1.95;1.60;;;;;;;;;;4998529;28;20057;-58
2024/02/18 17:02:38;;;;;;;1.65;0.82;;;;;;;;;;4995278;28;20077;-60
2024/02/18 17:05:38;;;;;;;2.63;1.20;;;;;;;;;;4999704;28;20636;-62
2024/02/18 17:08:26;;;;;;;1.20;1.00;;;;;;;;;;4994633;28;20116;-58